Flight Track Log - Related Links

Times and Time Zones

All times are in EDT time to prevent confusion due to time zone crossing. See the EJA929 flight status page for this flight to view local times or setup timezone preferences in your user account.

Time Position Orientation Groundspeed Altitude Reporting Facility
EDT Latitude Longitude Course Direction KTS MPH feet Rate Location/Type
Sun 04:21:56 PM 40.5786 -75.5719 93° East 247 284 6,000  Level New York Center
Sun 04:22:54 PM 40.6003 -75.6500 290° West 266 306 8,000 1,983 Climbing New York Center
Sun 04:23:54 PM 40.6769 -75.6117 21° North 205 236 9,900 1,537 Climbing New York Center
Sun 04:24:55 PM 40.7586 -75.5489 30° Northeast 295 339 11,100 1,475 Climbing New York Center
Sun 04:25:56 PM 40.8553 -75.4817 28° Northeast 360 414 12,900 1,869 Climbing New York Center
Sun 04:26:00 PM 41.4595 -75.4667 North  Level FlightAware Approximate
Sun 04:26:57 PM 40.9589 -75.4394 17° North 388 447 14,900  Level New York Center
Sun 04:27:00 PM 41.4618 -75.3559 93° East  Level FlightAware Approximate
Sun 04:27:54 PM 41.0778 -75.3869 18° North 396 456 16,800  Level New York Center
Sun 04:28:55 PM 41.1881 -75.3339 20° North 416 479 17,000 99 Climbing New York Center
Sun 04:29:55 PM 41.3067 -75.2811 18° North 432 497 17,000  Level New York Center
Sun 04:30:56 PM 41.4189 -75.2306 19° North 453 521 17,000  Level New York Center
Sun 04:32:35 PM 41.5522 -75.0006 52° Northeast 432 497 17,000  Level Boston Center
Sun 04:33:35 PM 41.5808 -74.8464 76° East 427 491 17,000  Level Boston Center
Sun 04:34:36 PM 41.6050 -74.6861 79° East 432 497 17,000  Level Boston Center
Sun 04:35:35 PM 41.6286 -74.5369 78° East 427 491 17,000  Level Boston Center
Sun 04:36:35 PM 41.6500 -74.3878 79° East 415 478 17,000  Level Boston Center
Sun 04:37:36 PM 41.6692 -74.2436 80° East 408 470 17,000  Level Boston Center
Sun 04:38:36 PM 41.6672 -74.1019 91° East 386 444 17,000  Level Boston Center
Sun 04:39:37 PM 41.6667 -73.9769 90° East 381 438 17,000  Level Boston Center
Sun 04:40:34 PM 41.6644 -73.8239 91° East 375 432 17,000  Level Boston Center
Sun 04:41:35 PM 41.6578 -73.6906 94° East 383 441 17,000  Level Boston Center
Sun 04:42:36 PM 41.6450 -73.5292 96° East 398 458 17,000  Level Boston Center
Sun 04:43:34 PM 41.6358 -73.3872 95° East 417 480 17,000  Level Boston Center
Sun 04:44:35 PM 41.6078 -73.2203 103° East 417 480 17,000  Level Boston Center
Sun 04:45:35 PM 41.5775 -73.0811 106° East 422 486 17,000  Level Boston Center
Sun 04:46:36 PM 41.5367 -72.9169 108° East 422 486 17,000  Level Boston Center
Sun 04:47:35 PM 41.5058 -72.7839 107° East 422 486 17,000  Level Boston Center
Sun 04:48:35 PM 41.4667 -72.6231 108° East 422 486 17,000  Level Boston Center
Sun 04:49:48 PM 41.4356 -72.4928 108° East 417 480 17,000  Level Boston Center
Sun 04:50:47 PM 41.3917 -72.3072 107° East 412 474 17,000 50 Level Boston Center
Sun 04:51:48 PM 41.3581 -72.1608 107° East 404 465 17,100 -1,008 Climbing Boston Center
Sun 04:52:46 PM 41.3347 -72.0117 102° East 404 465 15,000 -2,118 Descending Boston Center
Sun 04:53:47 PM 41.3403 -71.8567 87° East 417 480 12,900 -1,918 Descending Boston Center
Sun 04:54:48 PM 41.3497 -71.6989 85° East 423 487 11,100 -812 Descending Boston Center
Sun 04:56:00 PM 41.3547 -71.5358 88° East 418 481 11,100  Level Boston Center
Sun 04:57:01 PM 41.3639 -71.3781 86° East 397 457 11,100 -407 Level Boston Center
Sun 04:57:58 PM 41.3689 -71.2592 87° East 343 395 10,300 -814 Descending Boston Center
Sun 04:58:59 PM 41.3719 -71.1539 88° East 296 341 9,500 -645 Descending Boston Center
Sun 04:59:59 PM 41.3769 -71.0597 86° East 261 300 9,000 -590 Descending Boston Center
Sun 05:01:01 PM 41.3886 -70.9875 78° East 250 288 8,300 -1,261 Descending Boston Center
Sun 05:01:58 PM 41.4269 -70.8869 63° Northeast 250 288 6,500 -1,385 Descending Boston Center
Sun 05:03:11 PM 41.4592 -70.8058 62° Northeast 250 288 5,300 -1,308 Descending Boston Center
Sun 05:04:11 PM 41.4950 -70.7081 64° Northeast 244 281 3,600 -1,438 Descending Boston Center
Sun 05:05:12 PM 41.5169 -70.6408 66° East 231 266 2,400 -807 Descending Boston Center
Sun 05:06:10 PM 41.5367 -70.5653 71° East 206 237 2,000 -151 Descending Boston Center
Sun 05:07:11 PM 41.5022 -70.5081 129° Southeast 184 212 2,100  Climbing Boston Center
Sun 05:08:11 PM 41.4569 -70.5400 208° Southwest 110 127 2,000 -600 Descending Boston Center
Sun 05:09:11 PM 41.4264 -70.5769 222° Southwest 126 145 900 -694 Descending Boston Center
Sun 05:10:12 PM 41.3956 -70.6000 209° Southwest 138 159 600 -295 Descending Boston Center
Sun 05:13:00 PM 41.3833 -70.6000 North  Level FlightAware Approximate
Sun 05:20:00 PM 41.3934 -70.6139 North  Level Estimated
Sun 05:21:00 PM 41.3934 -70.6139 North  Level Estimated
Sun 05:22:00 PM 41.3934 -70.6139 North  Level Estimated
Sun 05:23:00 PM 41.3934 -70.6139 North  Level Estimated
Sun 05:24:00 PM 41.3934 -70.6139 North  Level Estimated
Sun 05:25:00 PM 41.3934 -70.6139 North  Level Estimated

Login

Don't have an account? Register now (free) for customized features, flight alerts, and more!